VABB METAR and TAF | Updated Today

VABB METAR

Chhatrapati Shivaji International Airport

Observation time: 18 min. ago

VABB 052030Z 24005KT 2500 HZ NSC 23/19 Q1011 NOSIG

Need help? Read our tutorial on how to read METARs or read the parsed version below.

Chhatrapati Shivaji International Airport (VABB) METAR

  • Weather conditions on Sun, 05 Feb 2023 20:30:00 +0000 (18 min. ago):
  • Present conditions: Haze
  • Clouds: No significant clouds are observed
  • Visibility: 2500 meters
  • Wind: 240 degrees at 5 knots
  • Temperature: 23 celsius
  • Dew point: 19 celsius
  • Pressure: 1011 millibars
  • Remarks: None


Useful to know...

VABB TAF

Chhatrapati Shivaji International Airport

TAF VABB 051700Z 0518/0603 00000KT 2000 FU NSC BECMG 0522/0524 00000KT 2000 FU
Observation time: 3:48 hr. ago
Need help? Read our tutorial on how to read TAFs or read the parsed version below.

Parsed version of TAF for Chhatrapati Shivaji International Airport (VABB)

  • From 05 February at 18:00 UTC, to day 06 of the month at 03:00 UTC
  • Clouds: No significant clouds are observed
  • Visibility: 2000 meters
  • Other: Smoke
  • Expected to arise soon, from 05 February at 22:00 UTC, to day 05 of the month at 24:00 UTC
  • Visibility: 2000 meters
  • Other: Smoke

Airports near VABB